Time;durP1;ratioP1;P1;durP2;ratioP2;P2;SDS_P1;SDS_P2;PMS_P1;PMS_P2;Temp;Humidity;BMP_temperature;BMP_pressure;BME280_temperature;BME280_humidity;BME280_pressure;Samples;Min_cycle;Max_cycle;Signal;HPM_P1;HPM_P2
2021/01/23 00:02:08;;;;;;;18.95;11.10;;;1.70;99.90;;;2.37;87.45;98757.63;5022133;28;20040;-83
2021/01/23 00:04:34;;;;;;;22.58;11.93;;;1.60;99.90;;;2.27;87.75;98755.34;5023715;28;20037;-83
2021/01/23 00:07:00;;;;;;;22.67;11.30;;;1.50;99.90;;;2.22;87.81;98749.25;5023048;28;20064;-83
2021/01/23 00:09:26;;;;;;;23.30;12.50;;;1.50;99.90;;;2.12;88.38;98753.31;5025639;28;20033;-83
2021/01/23 00:11:51;;;;;;;19.40;11.15;;;1.40;99.90;;;2.12;88.47;98754.09;5021373;28;20084;-82
2021/01/23 00:14:17;;;;;;;26.15;11.63;;;1.40;99.90;;;2.11;89.23;98757.22;5020087;28;20025;-83
2021/01/23 00:16:43;;;;;;;30.40;12.15;;;1.30;99.90;;;2.08;89.20;98749.66;5038976;28;20103;-81
2021/01/23 00:19:09;;;;;;;23.10;12.05;;;1.40;99.90;;;2.06;88.63;98751.94;5020072;28;20037;-81
2021/01/23 00:21:37;;;;;;;26.08;13.15;;;1.30;99.90;;;2.04;88.73;98748.75;5019761;28;20079;-80
2021/01/23 00:24:04;;;;;;;20.52;11.95;;;1.30;99.90;;;1.97;89.31;98754.03;5019918;28;20136;-80
2021/01/23 00:26:30;;;;;;;22.75;11.35;;;1.20;99.90;;;2.00;89.26;98753.34;5036436;28;20034;-80
2021/01/23 00:28:56;;;;;;;23.80;11.73;;;1.30;99.90;;;1.96;89.83;98761.47;5036164;28;20033;-82
2021/01/23 00:31:23;;;;;;;21.48;12.15;;;1.20;99.90;;;1.98;89.86;98759.22;5036193;28;20041;-82
2021/01/23 00:33:49;;;;;;;21.38;11.90;;;1.20;99.90;;;1.98;89.41;98758.41;5018615;28;20373;-80
2021/01/23 00:36:15;;;;;;;20.73;11.55;;;1.20;99.90;;;1.98;89.48;98763.91;5035957;28;20033;-81
2021/01/23 00:38:42;;;;;;;22.85;11.02;;;1.20;99.90;;;2.00;89.73;98758.84;5035510;28;20030;-80
2021/01/23 00:41:09;;;;;;;25.30;12.43;;;1.20;99.90;;;1.99;89.71;98755.28;5017790;28;20033;-82
2021/01/23 00:43:34;;;;;;;22.35;11.70;;;1.20;99.90;;;1.99;89.78;98752.53;5035653;28;20037;-81
2021/01/23 00:46:00;;;;;;;23.13;11.57;;;1.20;99.90;;;2.04;89.86;98746.81;5035687;28;20038;-81
2021/01/23 00:48:26;;;;;;;21.80;11.27;;;1.30;99.90;;;2.10;89.34;98748.16;5035485;28;20040;-83
2021/01/23 00:50:52;;;;;;;24.25;11.20;;;1.30;99.90;;;2.15;89.41;98760.91;5035079;28;20037;-81
2021/01/23 00:53:18;;;;;;;21.90;11.45;;;1.30;99.90;;;2.05;88.92;98758.63;5036351;28;20034;-84
2021/01/23 00:55:44;;;;;;;22.27;12.20;;;1.30;99.90;;;1.95;89.17;98757.16;5036293;28;20469;-80
2021/01/23 00:58:10;;;;;;;22.20;12.63;;;1.20;99.90;;;1.94;89.29;98758.28;5036450;28;20041;-79
2021/01/23 01:00:36;;;;;;;21.42;11.52;;;1.20;99.90;;;1.91;89.50;98760.94;5017408;28;20417;-80
2021/01/23 01:03:02;;;;;;;26.80;12.25;;;1.10;99.90;;;1.85;89.27;98763.13;5017907;28;20029;-82
2021/01/23 01:05:27;;;;;;;20.85;11.25;;;1.10;99.90;;;1.82;89.75;98765.75;5018300;28;20060;-82
2021/01/23 01:07:53;;;;;;;21.65;12.18;;;1.00;99.90;;;1.80;89.86;98765.31;5035576;28;20517;-83
2021/01/23 01:10:19;;;;;;;18.38;10.75;;;1.00;99.90;;;1.81;89.36;98777.91;5018208;28;20051;-82
2021/01/23 01:12:45;;;;;;;24.73;11.77;;;1.00;99.90;;;1.81;90.41;98772.41;5036484;28;20037;-82
2021/01/23 01:15:11;;;;;;;24.20;13.13;;;1.00;99.90;;;1.78;90.70;98776.66;5035637;28;20075;-83
2021/01/23 01:17:37;;;;;;;24.13;12.18;;;1.10;99.90;;;1.82;90.58;98780.34;5036020;28;20057;-83
2021/01/23 01:20:04;;;;;;;22.38;12.63;;;1.10;99.90;;;1.97;90.19;98789.81;5035679;28;20508;-83
2021/01/23 01:22:30;;;;;;;23.70;11.88;;;1.20;99.90;;;1.93;90.21;98786.97;5035576;28;20543;-81
2021/01/23 01:24:56;;;;;;;21.88;11.75;;;1.20;99.90;;;1.91;90.22;98781.00;5035537;28;20033;-82
2021/01/23 01:27:23;;;;;;;23.90;12.32;;;1.20;99.90;;;1.99;89.72;98799.34;5017478;28;20064;-79
2021/01/23 01:29:49;;;;;;;22.80;11.95;;;1.30;99.90;;;2.11;89.82;98798.53;5017845;28;20042;-81
2021/01/23 01:32:16;;;;;;;21.88;10.98;;;1.30;99.90;;;2.18;89.30;98797.94;5035659;28;20037;-82
2021/01/23 01:34:43;;;;;;;19.92;10.73;;;1.40;99.90;;;2.12;89.62;98792.66;5035376;28;20453;-82
2021/01/23 01:37:09;;;;;;;20.45;10.82;;;1.40;99.90;;;2.13;89.22;98793.47;5035521;28;20029;-82
2021/01/23 01:39:35;;;;;;;20.88;11.35;;;1.40;99.90;;;2.18;89.18;98795.19;5034959;28;20040;-81
2021/01/23 01:42:06;;;;;;;26.40;12.13;;;1.40;99.90;;;2.15;89.31;98799.44;5018346;28;20453;-81
2021/01/23 01:44:32;;;;;;;17.88;11.57;;;1.40;99.90;;;2.18;89.39;98796.00;5035932;28;20030;-84
2021/01/23 01:47:00;;;;;;;24.08;11.82;;;1.40;99.90;;;2.24;88.91;98800.13;5035879;28;20033;-82
2021/01/23 01:49:29;;;;;;;21.25;11.88;;;1.50;99.90;;;2.24;89.58;98799.31;5018195;28;20039;-84
2021/01/23 01:51:58;;;;;;;22.40;11.52;;;1.50;99.90;;;2.29;88.92;98791.59;5017629;28;20025;-81
2021/01/23 01:54:25;;;;;;;28.95;11.93;;;1.50;99.90;;;2.22;89.45;98793.31;5036588;28;20461;-84
2021/01/23 01:56:52;;;;;;;22.42;10.95;;;1.60;99.90;;;2.24;88.97;98797.34;5037460;28;20375;-84
2021/01/23 01:59:18;;;;;;;19.35;10.60;;;1.60;99.90;;;2.30;88.97;98800.66;5029818;28;20053;-84
2021/01/23 02:01:44;;;;;;;22.77;11.55;;;1.60;99.90;;;2.25;88.71;98807.22;5025112;28;20025;-82
2021/01/23 02:04:43;;;;;;;21.40;11.40;;;1.60;99.90;;;2.24;88.97;98799.31;5034808;28;20026;-83
2021/01/23 02:07:37;;;;;;;23.40;11.18;;;1.60;99.90;;;2.27;88.75;98796.66;5034517;28;20036;-83
2021/01/23 02:11:05;;;;;;;19.63;10.70;;;1.60;99.90;;;2.34;88.56;98793.31;5016354;28;20143;-82
2021/01/23 02:13:43;;;;;;;23.60;11.80;;;1.60;99.90;;;2.33;88.55;98792.50;4996230;28;20053;-83
2021/01/23 02:16:20;;;;;;;24.95;12.32;;;1.70;99.90;;;2.27;88.75;98799.41;5034671;28;20030;-82
2021/01/23 02:19:03;;;;;;;21.25;10.57;;;1.70;99.90;;;2.38;88.52;98800.53;5035071;28;20160;-82
2021/01/23 02:22:00;;;;;;;17.75;10.18;;;1.70;99.90;;;2.43;88.35;98797.53;5034421;28;20113;-83
2021/01/23 02:24:28;;;;;;;20.50;9.95;;;1.70;99.90;;;2.49;88.06;98795.34;5017018;28;20115;-81
2021/01/23 02:27:34;;;;;;;17.30;9.40;;;1.70;99.90;;;2.46;88.05;98794.09;5016543;28;20044;-81
2021/01/23 02:30:23;;;;;;;18.17;9.82;;;1.80;99.90;;;2.50;87.83;98796.94;5034307;28;20064;-81
2021/01/23 02:32:56;;;;;;;21.73;9.52;;;1.80;99.90;;;2.49;88.00;98798.09;5016980;28;20033;-84
2021/01/23 02:35:25;;;;;;;16.48;9.07;;;1.80;99.90;;;2.52;87.82;98792.69;5035333;28;20496;-82
2021/01/23 02:37:55;;;;;;;16.50;8.65;;;1.80;99.90;;;2.62;87.35;98794.13;5034964;28;20033;-82
2021/01/23 02:40:22;;;;;;;19.23;9.65;;;1.90;99.90;;;2.62;87.60;98789.44;5034961;28;20030;-81
2021/01/23 02:42:49;;;;;;;19.27;8.95;;;1.90;99.90;;;2.63;87.45;98790.25;5035110;28;20033;-80
2021/01/23 02:45:16;;;;;;;17.15;9.15;;;1.90;99.90;;;2.67;87.38;98794.69;5035364;28;20043;-83
2021/01/23 02:47:42;;;;;;;18.30;9.85;;;1.90;99.90;;;2.72;87.22;98795.59;5034838;28;20028;-82
2021/01/23 02:50:10;;;;;;;24.67;10.02;;;2.00;99.90;;;2.72;87.02;98798.34;5036143;28;20029;-82
2021/01/23 02:52:51;;;;;;;16.40;9.60;;;2.00;99.90;;;2.78;86.64;98792.25;5036279;28;20029;-82
2021/01/23 02:55:29;;;;;;;18.65;8.88;;;2.00;99.90;;;2.77;86.88;98787.88;5033181;28;20037;-81
2021/01/23 02:58:02;;;;;;;18.58;9.45;;;2.10;99.90;;;2.80;86.35;98786.34;5036608;28;20049;-81
2021/01/23 03:00:31;;;;;;;23.15;9.93;;;2.10;99.90;;;2.83;86.64;98777.38;5037696;28;20087;-82
2021/01/23 03:03:01;;;;;;;20.63;9.95;;;2.10;99.90;;;2.82;86.45;98775.78;5037659;28;20040;-81
2021/01/23 03:05:33;;;;;;;20.05;10.13;;;2.20;99.90;;;2.84;86.14;98766.00;5036342;28;20034;-82
2021/01/23 03:07:59;;;;;;;19.58;9.43;;;2.20;99.90;;;2.85;85.85;98769.56;5036935;28;20035;-82
2021/01/23 03:10:42;;;;;;;18.10;10.23;;;2.20;99.90;;;2.85;86.00;98772.34;5019550;28;20087;-81
2021/01/23 03:13:14;;;;;;;27.48;10.75;;;2.30;99.90;;;2.84;86.01;98765.22;5022411;28;20080;-82
2021/01/23 03:15:41;;;;;;;20.95;10.77;;;2.20;99.90;;;2.88;85.79;98769.69;5042640;28;20041;-82
2021/01/23 03:18:09;;;;;;;23.10;10.82;;;2.30;99.90;;;2.91;85.58;98777.25;5043130;28;20045;-81
2021/01/23 03:20:36;;;;;;;17.95;10.15;;;2.30;99.90;;;2.94;85.51;98782.03;5040552;28;20035;-80
2021/01/23 03:23:03;;;;;;;20.42;9.80;;;2.30;99.90;;;2.99;84.99;98778.22;5035086;28;20030;-80
2021/01/23 03:25:30;;;;;;;17.10;11.40;;;2.30;99.90;;;2.89;85.28;98779.53;5035962;28;20113;-81
2021/01/23 03:27:58;;;;;;;19.35;11.02;;;2.20;99.90;;;2.88;85.08;98775.19;5035680;28;20040;-80
2021/01/23 03:30:28;;;;;;;20.77;10.63;;;2.20;99.90;;;2.79;86.07;98763.53;5017158;28;20090;-82
2021/01/23 03:32:54;;;;;;;23.27;11.70;;;2.20;99.90;;;2.79;85.99;98762.72;5017134;28;20032;-81
2021/01/23 03:35:20;;;;;;;21.60;10.93;;;2.10;99.90;;;2.81;85.87;98763.97;5037086;28;20022;-82
2021/01/23 03:37:47;;;;;;;20.35;10.75;;;2.20;99.90;;;2.79;85.87;98771.00;5032774;28;20384;-84
2021/01/23 03:40:14;;;;;;;20.65;10.85;;;2.20;99.90;;;2.79;85.74;98769.03;5035045;28;20057;-84
2021/01/23 03:42:40;;;;;;;25.33;11.95;;;2.20;99.90;;;2.78;85.84;98763.88;5016831;28;20043;-80
2021/01/23 03:45:09;;;;;;;18.55;11.20;;;2.10;99.90;;;2.78;86.35;98758.34;5033407;28;20034;-81
2021/01/23 03:47:38;;;;;;;19.17;10.88;;;2.10;99.90;;;2.76;86.24;98755.94;5033661;28;20477;-80
2021/01/23 03:50:09;;;;;;;23.65;11.18;;;2.10;99.90;;;2.65;86.28;98763.94;5015843;28;20060;-84
2021/01/23 03:52:37;;;;;;;28.08;12.95;;;2.10;99.90;;;2.63;86.42;98768.97;5035092;28;20366;-81
2021/01/23 03:55:08;;;;;;;20.08;11.48;;;2.10;99.90;;;2.65;86.48;98763.94;5033848;28;20496;-82
2021/01/23 03:57:35;;;;;;;24.55;11.65;;;2.10;99.90;;;2.65;86.40;98755.66;5033910;28;20035;-84
2021/01/23 04:00:03;;;;;;;23.00;11.70;;;2.00;99.90;;;2.65;86.59;98750.16;5034309;28;20022;-82
2021/01/23 04:02:29;;;;;;;21.48;12.02;;;2.00;99.90;;;2.69;86.51;98754.94;5017069;28;20029;-83
2021/01/23 04:04:55;;;;;;;22.20;12.40;;;2.10;99.90;;;2.72;86.33;98749.53;5034190;28;20032;-83
2021/01/23 04:07:20;;;;;;;21.45;11.80;;;2.10;99.90;;;2.67;86.48;98752.53;5034449;28;20029;-81
2021/01/23 04:09:46;;;;;;;26.33;11.20;;;2.10;99.90;;;2.63;87.00;98743.38;5031677;28;20025;-82
2021/01/23 04:12:12;;;;;;;26.00;11.93;;;2.10;99.90;;;2.63;87.05;98746.91;5016961;28;20026;-82
2021/01/23 04:14:39;;;;;;;21.10;11.85;;;2.10;99.90;;;2.63;87.16;98744.16;5035818;28;20025;-83
2021/01/23 04:17:05;;;;;;;25.98;12.82;;;2.10;99.90;;;2.64;86.80;98744.97;5021237;28;20366;-83
2021/01/23 04:19:30;;;;;;;22.08;11.77;;;2.10;99.90;;;2.65;86.75;98739.13;5038327;28;20021;-84
2021/01/23 04:21:56;;;;;;;22.95;12.50;;;2.10;99.90;;;2.70;86.87;98749.06;5047340;28;20115;-83
2021/01/23 04:24:22;;;;;;;20.48;12.10;;;2.20;99.90;;;2.86;86.22;98736.13;5028127;28;20041;-83
2021/01/23 04:26:49;;;;;;;17.75;11.05;;;2.20;99.90;;;2.75;86.29;98737.00;5037848;28;20116;-81
2021/01/23 04:29:15;;;;;;;20.38;12.27;;;2.20;99.90;;;2.74;86.50;98733.44;5019993;28;20034;-80
2021/01/23 04:31:41;;;;;;;21.35;12.35;;;2.20;99.90;;;2.74;86.43;98730.69;5018999;28;20037;-83
2021/01/23 04:34:07;;;;;;;20.17;11.30;;;2.20;99.90;;;2.70;86.64;98734.50;5019186;28;20107;-84
2021/01/23 04:36:32;;;;;;;20.98;12.40;;;2.20;99.90;;;2.62;87.03;98731.56;5037265;28;20041;-84
2021/01/23 04:38:59;;;;;;;21.73;12.52;;;2.20;99.90;;;2.66;86.66;98726.91;5019556;28;20033;-83
2021/01/23 04:41:29;;;;;;;19.40;11.63;;;2.10;99.90;;;2.59;87.20;98717.69;5019227;28;20504;-84
2021/01/23 04:43:55;;;;;;;25.17;12.43;;;2.10;99.90;;;2.71;86.37;98714.84;5038774;28;20040;-84
2021/01/23 04:46:22;;;;;;;27.48;11.43;;;2.20;99.90;;;2.72;86.21;98721.97;5021157;28;20039;-82
2021/01/23 04:48:50;;;;;;;22.70;11.57;;;2.20;99.90;;;2.77;86.31;98718.16;5021424;28;20038;-82
2021/01/23 04:51:16;;;;;;;19.45;11.23;;;2.30;99.90;;;2.79;85.83;98718.63;5039495;28;20044;-81
2021/01/23 04:53:46;;;;;;;26.42;11.07;;;2.20;99.90;;;2.83;85.96;98716.72;5022331;28;20059;-83
2021/01/23 04:56:12;;;;;;;20.85;11.07;;;2.20;99.90;;;2.79;85.66;98710.34;5037145;28;20432;-82
2021/01/23 04:58:38;;;;;;;17.75;10.75;;;2.20;99.90;;;2.81;85.41;98708.81;5034824;28;20076;-82
2021/01/23 05:01:04;;;;;;;20.77;11.15;;;2.20;99.90;;;2.80;85.09;98704.47;5016893;28;20037;-80
2021/01/23 05:03:30;;;;;;;19.48;10.57;;;2.20;99.90;;;2.73;85.79;98697.97;5034814;28;20039;-81
2021/01/23 05:06:07;;;;;;;20.15;10.35;;;2.10;99.90;;;2.76;85.22;98698.03;5034785;28;20398;-81
2021/01/23 05:08:38;;;;;;;21.13;10.82;;;2.10;99.90;;;2.63;85.69;98697.31;5017433;28;20037;-82
2021/01/23 05:11:05;;;;;;;16.75;9.88;;;2.00;99.90;;;2.65;85.66;98685.94;5034814;28;20116;-82
2021/01/23 05:13:32;;;;;;;15.70;8.75;;;2.00;99.90;;;2.72;85.44;98682.59;5017298;28;20098;-81
2021/01/23 05:15:58;;;;;;;21.00;10.45;;;2.10;99.90;;;2.79;85.10;98691.84;5016950;28;20029;-82
2021/01/23 05:18:24;;;;;;;16.98;9.73;;;2.20;99.90;;;2.80;85.08;98681.59;5016868;28;20052;-81
2021/01/23 05:20:54;;;;;;;20.77;10.18;;;2.20;99.90;;;2.82;84.52;98679.31;5034330;28;20156;-81
2021/01/23 05:23:27;;;;;;;18.55;9.80;;;2.20;99.90;;;2.74;84.88;98692.09;5034372;28;20439;-82
2021/01/23 05:25:59;;;;;;;18.25;9.73;;;2.10;99.90;;;2.69;85.22;98683.28;5034307;28;20033;-83
2021/01/23 05:28:36;;;;;;;22.67;10.82;;;2.00;99.90;;;2.66;85.40;98682.06;5015957;28;20497;-81
2021/01/23 05:31:14;;;;;;;24.20;10.63;;;2.00;99.90;;;2.66;85.67;98682.06;5034253;28;20037;-81
2021/01/23 05:33:40;;;;;;;18.02;10.05;;;2.00;99.90;;;2.70;85.60;98685.69;5034337;28;20029;-81
2021/01/23 05:36:11;;;;;;;20.92;11.15;;;2.00;99.90;;;2.68;85.66;98685.25;5034074;28;20155;-82
2021/01/23 05:38:40;;;;;;;17.35;10.13;;;2.00;99.90;;;2.70;85.72;98687.66;5033942;28;20029;-82
2021/01/23 05:41:08;;;;;;;18.73;11.23;;;2.00;99.90;;;2.78;85.48;98693.00;5057206;23;20045;-80
2021/01/23 05:43:51;;;;;;;22.05;9.80;;;2.00;99.90;;;2.77;85.25;98693.34;5037810;28;20178;-79
2021/01/23 05:46:26;;;;;;;20.63;10.38;;;2.10;99.90;;;2.78;85.85;98693.00;5037298;28;20040;-79
2021/01/23 05:48:53;;;;;;;19.73;10.32;;;2.00;99.90;;;2.80;85.37;98692.63;5055110;28;20056;-80
2021/01/23 05:51:21;;;;;;;17.67;9.75;;;2.10;99.90;;;2.80;85.47;98696.19;5037588;28;20478;-79
2021/01/23 05:53:49;;;;;;;19.90;10.00;;;2.10;99.90;;;2.82;84.91;98696.66;5037059;28;20029;-80
2021/01/23 05:56:16;;;;;;;14.30;9.27;;;2.20;99.90;;;2.79;85.16;98680.81;5054161;28;20049;-79
2021/01/23 05:58:45;;;;;;;22.85;9.75;;;2.20;99.90;;;2.84;85.02;98688.00;5037446;28;20356;-81
2021/01/23 06:01:20;;;;;;;15.90;8.68;;;2.20;99.90;;;2.86;84.51;98694.00;5037228;28;20029;-80
2021/01/23 06:03:57;;;;;;;15.55;9.02;;;2.20;99.90;;;2.86;84.79;98694.00;5036768;28;20471;-79
2021/01/23 06:06:23;;;;;;;18.67;9.30;;;2.20;99.90;;;2.86;84.92;98699.50;5036872;28;20396;-79
2021/01/23 06:08:52;;;;;;;18.35;9.02;;;2.20;99.90;;;2.83;84.93;98695.47;5036599;28;20043;-78
2021/01/23 06:11:17;;;;;;;16.48;8.35;;;2.20;99.90;;;2.89;84.72;98696.03;5036794;28;20131;-80
2021/01/23 06:13:56;;;;;;;14.20;7.90;;;2.20;99.90;;;2.91;85.28;98686.25;5054648;28;20118;-81
2021/01/23 06:16:35;;;;;;;11.35;5.97;;;2.30;99.90;;;2.99;84.67;98684.47;5036674;28;20029;-80
2021/01/23 06:19:27;;;;;;;17.20;6.38;;;2.40;99.90;;;3.05;84.72;98683.06;5036900;28;20039;-80
2021/01/23 06:21:54;;;;;;;10.75;5.88;;;2.50;99.90;;;3.10;84.11;98691.06;5036397;28;20033;-81
2021/01/23 06:24:42;;;;;;;10.10;6.45;;;2.50;99.90;;;3.16;84.54;98682.16;5037227;28;20389;-78
2021/01/23 06:27:08;;;;;;;12.77;6.13;;;2.60;99.90;;;3.15;84.37;98690.78;5038319;28;20538;-82
2021/01/23 06:29:41;;;;;;;9.35;5.70;;;2.60;99.90;;;3.27;83.81;98704.50;5054936;28;20033;-80
2021/01/23 06:32:13;;;;;;;9.30;5.63;;;2.60;99.90;;;3.24;84.00;98704.41;5039470;28;20380;-82
2021/01/23 06:35:02;;;;;;;10.15;5.45;;;2.60;99.90;;;3.32;83.98;98706.16;5060797;28;20029;-80
2021/01/23 06:37:37;;;;;;;9.48;5.88;;;2.70;99.90;;;3.39;84.03;98712.69;5056611;28;20021;-79
2021/01/23 06:40:25;;;;;;;9.45;5.55;;;2.60;99.90;;;3.35;84.07;98702.69;5038458;28;20033;-80
2021/01/23 06:42:53;;;;;;;9.02;5.15;;;2.60;99.90;;;3.43;84.25;98704.47;5055323;28;20032;-79
2021/01/23 06:45:32;;;;;;;12.73;6.35;;;2.70;99.90;;;3.42;84.71;98703.69;5055652;28;20456;-80
2021/01/23 06:47:59;;;;;;;11.60;6.05;;;2.80;99.90;;;3.54;84.22;98706.31;5071394;28;20028;-79
2021/01/23 06:50:42;;;;;;;10.10;6.00;;;2.80;99.90;;;3.56;84.57;98704.00;5054067;28;20033;-81
2021/01/23 06:53:22;;;;;;;10.25;5.15;;;2.90;99.90;;;3.61;84.40;98691.88;5054281;28;20025;-81
2021/01/23 06:55:55;;;;;;;10.27;5.13;;;2.90;99.90;;;3.61;84.21;98697.41;5054801;28;20065;-80
2021/01/23 06:58:34;;;;;;;9.32;5.80;;;3.00;99.90;;;3.70;84.17;98698.00;5072361;28;20036;-80
2021/01/23 07:01:03;;;;;;;13.15;6.25;;;3.10;99.90;;;3.78;84.32;98701.75;5051238;28;20158;-81
2021/01/23 07:03:31;;;;;;;9.85;5.07;;;3.10;99.90;;;3.79;84.76;98708.88;5038633;28;20057;-82
2021/01/23 07:06:00;;;;;;;10.50;5.72;;;3.10;99.90;;;3.83;84.28;98716.06;5038712;28;20029;-80
2021/01/23 07:08:33;;;;;;;9.40;5.60;;;3.20;99.90;;;3.82;83.63;98719.19;5037700;28;20032;-82
2021/01/23 07:11:17;;;;;;;9.55;5.32;;;3.20;99.90;;;3.92;84.12;98727.69;5037545;28;20061;-82
2021/01/23 07:14:05;;;;;;;9.48;5.45;;;3.20;99.90;;;3.84;84.39;98722.38;5037976;28;20098;-81
2021/01/23 07:16:38;;;;;;;10.20;5.65;;;3.30;99.90;;;3.97;84.10;98712.81;5059976;28;20032;-81
2021/01/23 07:19:07;;;;;;;12.23;5.55;;;3.30;99.90;;;4.01;84.11;98714.50;5055126;28;20028;-81
2021/01/23 07:21:41;;;;;;;9.35;4.68;;;3.30;99.90;;;3.96;84.17;98716.75;5037891;28;20040;-84
2021/01/23 07:24:09;;;;;;;10.00;5.53;;;3.30;99.90;;;4.00;83.56;98715.66;5039909;28;20029;-83
2021/01/23 07:26:37;;;;;;;10.40;5.78;;;3.30;99.90;;;3.80;84.53;98716.78;5048898;28;20434;-81
2021/01/23 07:29:03;;;;;;;8.55;5.07;;;3.30;99.90;;;3.83;84.64;98701.44;5052245;28;20041;-81
2021/01/23 07:31:32;;;;;;;8.73;5.60;;;3.20;99.90;;;3.67;85.23;98716.09;5069245;28;20033;-82
2021/01/23 07:34:08;;;;;;;10.18;5.90;;;3.20;99.90;;;3.72;84.48;98713.06;5054103;28;20029;-81
2021/01/23 07:36:44;;;;;;;10.23;5.82;;;3.10;99.90;;;3.55;85.32;98715.41;5052287;28;20032;-83
2021/01/23 07:39:20;;;;;;;;;;;3.10;99.90;;;3.62;85.57;98712.81;5072044;28;20104;-83
2021/01/23 07:41:49;;;;;;;10.30;5.78;;;3.10;99.90;;;3.67;85.25;98707.81;5050151;28;20011;-83
2021/01/23 07:44:16;;;;;;;10.07;5.78;;;3.00;99.90;;;3.68;85.12;98709.44;5055988;28;20072;-84
2021/01/23 07:46:47;;;;;;;12.60;6.70;;;3.00;99.90;;;3.65;85.44;98710.16;5045989;28;20045;-79
2021/01/23 07:49:28;;;;;;;9.75;6.00;;;3.10;99.90;;;3.70;85.46;98711.81;5048456;28;20025;-81
2021/01/23 07:52:10;;;;;;;12.32;5.93;;;3.10;99.90;;;3.78;85.08;98702.56;5069550;28;20143;-84
2021/01/23 07:54:50;;;;;;;13.25;6.40;;;3.10;99.90;;;3.90;84.42;98707.13;5047296;28;20029;-83
2021/01/23 07:57:16;;;;;;;9.02;5.57;;;3.20;99.90;;;3.92;84.29;98710.31;5044373;28;20121;-83
2021/01/23 07:59:47;;;;;;;11.93;6.25;;;3.20;99.90;;;3.94;84.40;98708.81;5042321;28;20052;-82
2021/01/23 08:02:18;;;;;;;10.85;6.18;;;3.20;99.90;;;3.94;84.74;98708.81;5050179;28;20022;-78
2021/01/23 08:04:50;;;;;;;11.63;6.18;;;3.30;99.90;;;3.89;84.79;98709.09;5055287;28;20515;-82
2021/01/23 08:07:31;;;;;;;12.25;6.85;;;3.30;99.90;;;3.93;84.47;98695.38;5056360;28;20051;-83
2021/01/23 08:10:14;;;;;;;11.23;6.43;;;3.30;99.90;;;4.05;84.12;98707.09;5063938;28;20029;-84
2021/01/23 08:12:57;;;;;;;13.32;5.80;;;3.40;99.90;;;4.09;83.76;98701.63;5042127;28;20029;-83
2021/01/23 08:15:32;;;;;;;10.20;5.38;;;3.50;99.90;;;4.13;84.19;98702.53;5044318;28;20029;-82
2021/01/23 08:18:00;;;;;;;10.18;5.88;;;3.50;99.90;;;4.11;83.70;98707.63;5039632;28;20114;-81
2021/01/23 08:20:36;;;;;;;9.73;5.85;;;3.50;99.90;;;4.14;83.80;98709.66;5040852;28;20037;-82
2021/01/23 08:23:15;;;;;;;9.93;6.50;;;3.50;99.90;;;4.13;83.60;98699.75;5057629;28;20036;-83
2021/01/23 08:25:54;;;;;;;12.05;6.25;;;3.50;99.90;;;4.19;83.79;98695.53;5042085;28;20074;-80
2021/01/23 08:28:32;;;;;;;9.38;5.80;;;3.50;99.90;;;4.30;83.35;98701.28;5038714;28;20396;-80
2021/01/23 08:31:21;;;;;;;9.88;6.07;;;3.60;99.90;;;4.34;83.30;98710.44;5037899;28;20036;-81
2021/01/23 08:33:56;;;;;;;10.48;5.97;;;3.70;99.90;;;4.41;82.74;98700.34;5038555;28;20078;-82
2021/01/23 08:36:29;;;;;;;8.68;5.78;;;3.80;99.90;;;4.45;82.87;98692.13;5038407;28;20032;-79
2021/01/23 08:39:06;;;;;;;10.50;5.80;;;3.80;99.90;;;4.58;82.51;98690.81;5038146;28;20515;-82
2021/01/23 08:41:34;;;;;;;9.50;5.38;;;3.90;99.90;;;4.48;82.60;98705.22;5037805;28;20156;-82
2021/01/23 08:44:00;;;;;;;8.25;5.47;;;3.90;99.90;;;4.59;82.11;98695.19;5039189;28;20431;-79
2021/01/23 08:46:26;;;;;;;8.63;5.55;;;3.90;99.90;;;4.63;81.87;98696.81;5038966;28;20060;-80
2021/01/23 08:48:54;;;;;;;12.57;5.68;;;4.00;99.90;;;4.74;81.22;98692.31;5038542;28;20029;-82
2021/01/23 08:51:20;;;;;;;10.98;5.68;;;4.00;99.90;;;4.76;81.45;98689.16;5042274;28;20029;-83
2021/01/23 08:53:46;;;;;;;9.70;5.57;;;4.10;99.90;;;4.89;80.67;98689.78;5042740;28;20089;-83
2021/01/23 08:56:13;;;;;;;10.30;4.93;;;4.20;99.90;;;4.84;81.37;98684.56;5044206;28;20071;-85
2021/01/23 08:58:39;;;;;;;8.25;5.13;;;4.30;99.90;;;4.94;81.25;98683.97;5043707;28;20115;-86
2021/01/23 09:01:05;;;;;;;9.82;5.60;;;4.40;99.90;;;5.01;79.95;98687.63;5061919;28;20075;-84
2021/01/23 09:03:31;;;;;;;10.18;4.97;;;4.50;99.90;;;5.17;80.05;98690.31;5077342;28;20025;-82
2021/01/23 09:05:57;;;;;;;8.98;5.43;;;4.60;99.90;;;5.14;79.72;98688.25;5064294;28;20025;-83
2021/01/23 09:08:23;;;;;;;6.38;4.55;;;4.60;99.90;;;5.18;79.17;98692.69;5054849;28;20079;-80
2021/01/23 09:10:49;;;;;;;6.15;4.50;;;4.60;99.90;;;5.46;78.47;98695.13;5055161;28;20466;-79
2021/01/23 09:13:14;;;;;;;8.77;4.80;;;4.70;99.90;;;5.51;77.86;98692.06;5037038;28;20029;-82
2021/01/23 09:15:40;;;;;;;9.10;4.50;;;4.80;99.90;;;5.34;78.67;98692.56;5036790;28;20108;-81
2021/01/23 09:18:07;;;;;;;7.85;5.10;;;4.90;99.90;;;5.65;77.47;98685.94;5036632;28;20433;-81
2021/01/23 09:20:34;;;;;;;10.15;4.55;;;4.90;99.90;;;5.77;76.68;98689.28;5036963;28;20032;-81
2021/01/23 09:23:00;;;;;;;7.07;4.65;;;5.00;99.90;;;5.65;76.87;98686.72;5041854;28;20033;-84
2021/01/23 09:25:26;;;;;;;9.32;4.40;;;5.00;99.90;;;5.56;77.04;98683.41;5056484;28;20037;-83
2021/01/23 09:27:52;;;;;;;7.18;4.80;;;5.00;99.90;;;5.80;77.22;98684.97;5037363;28;20033;-83
2021/01/23 09:30:19;;;;;;;8.80;5.32;;;5.10;99.90;;;6.27;75.73;98678.91;5056791;28;20392;-83
2021/01/23 09:32:45;;;;;;;9.43;5.00;;;5.50;99.90;;;6.88;73.36;98683.94;5056065;28;20160;-84
2021/01/23 09:35:13;;;;;;;9.13;4.70;;;5.90;99.90;;;7.02;71.54;98681.31;5038167;28;20507;-85
2021/01/23 09:37:39;;;;;;;7.57;4.05;;;6.30;99.90;;;7.41;71.08;98676.91;5038959;28;20096;-84
2021/01/23 09:40:07;;;;;;;8.40;3.88;;;6.60;99.90;;;7.31;70.03;98682.38;5055197;28;20033;-86
2021/01/23 09:42:33;;;;;;;7.70;3.67;;;6.70;99.90;;;7.00;71.52;98685.66;5059445;28;20041;-82
2021/01/23 09:44:59;;;;;;;5.80;3.92;;;6.50;99.90;;;7.04;71.26;98680.94;5057863;28;20524;-83
2021/01/23 09:47:25;;;;;;;8.05;4.18;;;6.50;99.90;;;6.58;71.95;98686.00;5038865;28;20054;-83
2021/01/23 09:49:51;;;;;;;5.72;4.13;;;6.20;99.90;;;6.58;72.71;98683.25;5041316;28;20489;-80
2021/01/23 09:52:17;;;;;;;8.20;4.35;;;6.10;99.90;;;6.57;72.09;98676.88;5039412;28;20025;-79
2021/01/23 09:54:43;;;;;;;8.27;4.57;;;6.10;99.90;;;6.48;71.90;98670.84;5039529;28;20088;-81
2021/01/23 09:57:09;;;;;;;7.80;3.95;;;5.90;99.90;;;6.55;72.36;98681.22;5040986;28;20137;-82
2021/01/23 09:59:35;;;;;;;5.35;3.22;;;5.90;99.90;;;6.48;73.21;98681.94;5039548;28;20032;-82
2021/01/23 10:02:01;;;;;;;6.80;4.15;;;5.90;99.90;;;6.66;72.22;98674.63;5048032;28;20033;-79
2021/01/23 10:04:35;;;;;;;8.80;4.15;;;5.90;99.90;;;6.83;70.81;98692.63;5045449;28;20039;-85
2021/01/23 10:07:01;;;;;;;6.63;3.92;;;6.10;99.90;;;6.76;71.84;98685.03;5037397;28;20060;-82
2021/01/23 10:09:26;;;;;;;5.63;3.78;;;6.10;99.90;;;6.74;71.29;98681.81;5036525;28;20108;-81
2021/01/23 10:11:54;;;;;;;5.35;3.55;;;6.10;99.90;;;7.00;70.58;98678.13;5039426;28;20460;-81
2021/01/23 10:14:19;;;;;;;8.75;3.70;;;6.10;99.90;;;6.85;71.33;98684.72;5036586;28;20025;-83
2021/01/23 10:16:45;;;;;;;5.93;3.85;;;6.20;99.90;;;6.66;71.27;98676.59;5036794;28;20036;-80
2021/01/23 10:19:11;;;;;;;5.35;3.80;;;6.10;99.90;;;6.61;71.11;98680.50;5054500;28;20036;-82
2021/01/23 10:21:38;;;;;;;6.82;4.07;;;6.00;99.90;;;6.56;71.53;98682.81;5036427;28;20040;-82
2021/01/23 10:24:05;;;;;;;5.95;3.67;;;5.90;99.90;;;6.63;71.48;98688.44;5054123;28;20036;-84
2021/01/23 10:26:33;;;;;;;6.20;3.70;;;5.90;99.90;;;6.86;70.70;98681.56;5036544;28;20032;-79
2021/01/23 10:29:00;;;;;;;4.97;3.47;;;6.00;99.90;;;7.31;69.96;98683.19;5035841;28;20488;-81
2021/01/23 10:31:29;;;;;;;7.05;3.95;;;6.30;99.90;;;7.48;69.12;98681.72;5036640;28;20037;-83
2021/01/23 10:33:55;;;;;;;7.53;3.70;;;6.50;99.90;;;7.60;69.14;98688.97;5055281;28;20032;-82
2021/01/23 10:36:20;;;;;;;6.05;3.85;;;6.60;99.90;;;7.53;68.36;98680.56;5054435;28;20029;-82
2021/01/23 10:38:47;;;;;;;7.18;3.47;;;6.60;99.90;;;7.54;68.40;98688.53;5036422;28;20079;-80